sensor_id;sensor_type;location;lat;lon;timestamp;P1;durP1;ratioP1;P2;durP2;ratioP2
21927;SDS011;11128;51.096;17.190;2023-04-01T00:02:44;3.58;;;2.40;;
21927;SDS011;11128;51.096;17.190;2023-04-01T00:07:46;5.78;;;3.20;;
21927;SDS011;11128;51.096;17.190;2023-04-01T00:12:47;7.25;;;3.08;;
21927;SDS011;11128;51.096;17.190;2023-04-01T00:17:48;7.47;;;2.97;;
21927;SDS011;11128;51.096;17.190;2023-04-01T00:22:50;4.50;;;3.22;;
21927;SDS011;11128;51.096;17.190;2023-04-01T00:27:51;5.50;;;3.63;;
21927;SDS011;11128;51.096;17.190;2023-04-01T00:32:53;6.68;;;4.32;;
21927;SDS011;11128;51.096;17.190;2023-04-01T00:37:54;7.25;;;4.38;;
21927;SDS011;11128;51.096;17.190;2023-04-01T00:42:56;8.95;;;5.50;;
21927;SDS011;11128;51.096;17.190;2023-04-01T00:47:58;8.57;;;5.88;;
21927;SDS011;11128;51.096;17.190;2023-04-01T00:53:02;10.85;;;5.82;;
21927;SDS011;11128;51.096;17.190;2023-04-01T00:58:05;10.43;;;6.32;;
21927;SDS011;11128;51.096;17.190;2023-04-01T01:03:09;10.73;;;5.85;;
21927;SDS011;11128;51.096;17.190;2023-04-01T01:14:17;10.43;;;6.45;;
21927;SDS011;11128;51.096;17.190;2023-04-01T01:40:26;12.15;;;7.43;;
21927;SDS011;11128;51.096;17.190;2023-04-01T01:45:29;13.45;;;6.93;;
21927;SDS011;11128;51.096;17.190;2023-04-01T01:50:33;11.25;;;7.30;;
21927;SDS011;11128;51.096;17.190;2023-04-01T01:55:39;12.43;;;7.53;;
21927;SDS011;11128;51.096;17.190;2023-04-01T02:00:50;13.57;;;7.80;;
21927;SDS011;11128;51.096;17.190;2023-04-01T02:05:56;12.50;;;7.60;;
21927;SDS011;11128;51.096;17.190;2023-04-01T02:11:01;10.63;;;6.97;;
21927;SDS011;11128;51.096;17.190;2023-04-01T02:16:08;12.63;;;7.80;;
21927;SDS011;11128;51.096;17.190;2023-04-01T02:21:15;10.52;;;6.88;;
21927;SDS011;11128;51.096;17.190;2023-04-01T02:26:19;11.73;;;6.90;;
21927;SDS011;11128;51.096;17.190;2023-04-01T02:31:21;11.20;;;7.25;;
21927;SDS011;11128;51.096;17.190;2023-04-01T02:36:23;13.70;;;7.18;;
21927;SDS011;11128;51.096;17.190;2023-04-01T02:41:25;14.38;;;7.47;;
21927;SDS011;11128;51.096;17.190;2023-04-01T02:46:26;14.23;;;7.75;;
21927;SDS011;11128;51.096;17.190;2023-04-01T02:51:27;11.35;;;7.38;;
21927;SDS011;11128;51.096;17.190;2023-04-01T02:56:29;12.45;;;6.65;;
21927;SDS011;11128;51.096;17.190;2023-04-01T03:01:30;12.07;;;6.93;;
21927;SDS011;11128;51.096;17.190;2023-04-01T03:06:31;9.95;;;5.85;;
21927;SDS011;11128;51.096;17.190;2023-04-01T03:11:33;10.23;;;6.00;;
21927;SDS011;11128;51.096;17.190;2023-04-01T03:16:34;7.45;;;5.18;;
21927;SDS011;11128;51.096;17.190;2023-04-01T03:21:35;8.75;;;5.50;;
21927;SDS011;11128;51.096;17.190;2023-04-01T03:26:36;8.00;;;4.70;;
21927;SDS011;11128;51.096;17.190;2023-04-01T03:31:38;8.13;;;5.00;;
21927;SDS011;11128;51.096;17.190;2023-04-01T03:36:39;9.70;;;4.72;;
21927;SDS011;11128;51.096;17.190;2023-04-01T03:41:40;7.90;;;5.03;;
21927;SDS011;11128;51.096;17.190;2023-04-01T03:46:41;7.25;;;5.22;;
21927;SDS011;11128;51.096;17.190;2023-04-01T03:51:42;10.75;;;4.70;;
21927;SDS011;11128;51.096;17.190;2023-04-01T03:56:44;7.35;;;4.38;;
21927;SDS011;11128;51.096;17.190;2023-04-01T04:01:46;5.70;;;4.45;;
21927;SDS011;11128;51.096;17.190;2023-04-01T04:06:48;8.05;;;4.35;;
21927;SDS011;11128;51.096;17.190;2023-04-01T04:11:49;7.00;;;4.38;;
21927;SDS011;11128;51.096;17.190;2023-04-01T04:16:51;9.05;;;5.22;;
21927;SDS011;11128;51.096;17.190;2023-04-01T04:21:52;12.45;;;5.82;;
21927;SDS011;11128;51.096;17.190;2023-04-01T04:26:54;8.90;;;5.68;;
21927;SDS011;11128;51.096;17.190;2023-04-01T04:31:55;9.98;;;5.03;;
21927;SDS011;11128;51.096;17.190;2023-04-01T04:36:56;9.80;;;5.85;;
21927;SDS011;11128;51.096;17.190;2023-04-01T04:41:57;7.32;;;5.05;;
21927;SDS011;11128;51.096;17.190;2023-04-01T04:46:59;7.30;;;5.30;;
21927;SDS011;11128;51.096;17.190;2023-04-01T04:52:00;7.60;;;4.85;;
21927;SDS011;11128;51.096;17.190;2023-04-01T04:57:01;10.50;;;5.10;;
21927;SDS011;11128;51.096;17.190;2023-04-01T05:02:02;11.85;;;5.45;;
21927;SDS011;11128;51.096;17.190;2023-04-01T05:07:03;9.32;;;5.43;;
21927;SDS011;11128;51.096;17.190;2023-04-01T05:12:05;6.22;;;4.38;;
21927;SDS011;11128;51.096;17.190;2023-04-01T05:17:09;5.90;;;3.72;;
21927;SDS011;11128;51.096;17.190;2023-04-01T05:22:12;8.98;;;4.05;;
21927;SDS011;11128;51.096;17.190;2023-04-01T05:27:13;4.30;;;3.15;;
21927;SDS011;11128;51.096;17.190;2023-04-01T05:32:14;5.90;;;3.60;;
21927;SDS011;11128;51.096;17.190;2023-04-01T05:37:16;5.70;;;4.05;;
21927;SDS011;11128;51.096;17.190;2023-04-01T05:42:17;8.50;;;4.57;;
21927;SDS011;11128;51.096;17.190;2023-04-01T05:47:18;9.10;;;4.57;;
21927;SDS011;11128;51.096;17.190;2023-04-01T05:52:19;10.55;;;5.00;;
21927;SDS011;11128;51.096;17.190;2023-04-01T05:57:21;9.52;;;5.15;;
21927;SDS011;11128;51.096;17.190;2023-04-01T06:02:22;8.55;;;5.35;;
21927;SDS011;11128;51.096;17.190;2023-04-01T06:07:23;9.20;;;5.13;;
21927;SDS011;11128;51.096;17.190;2023-04-01T06:12:30;11.00;;;6.18;;
21927;SDS011;11128;51.096;17.190;2023-04-01T06:33:52;9.30;;;5.57;;
21927;SDS011;11128;51.096;17.190;2023-04-01T07:00:36;4.30;;;3.20;;
21927;SDS011;11128;51.096;17.190;2023-04-01T07:05:41;7.40;;;3.20;;
21927;SDS011;11128;51.096;17.190;2023-04-01T07:11:01;7.93;;;3.78;;
21927;SDS011;11128;51.096;17.190;2023-04-01T07:21:22;5.53;;;3.58;;
21927;SDS011;11128;51.096;17.190;2023-04-01T07:26:30;5.93;;;3.80;;
21927;SDS011;11128;51.096;17.190;2023-04-01T07:32:35;5.85;;;3.47;;
21927;SDS011;11128;51.096;17.190;2023-04-01T07:37:26;4.40;;;3.25;;
21927;SDS011;11128;51.096;17.190;2023-04-01T07:48:46;6.15;;;3.40;;
21927;SDS011;11128;51.096;17.190;2023-04-01T07:59:06;7.90;;;3.75;;
21927;SDS011;11128;51.096;17.190;2023-04-01T08:25:04;7.60;;;3.65;;
21927;SDS011;11128;51.096;17.190;2023-04-01T08:31:12;6.13;;;3.53;;
21927;SDS011;11128;51.096;17.190;2023-04-01T08:36:03;5.65;;;3.10;;
21927;SDS011;11128;51.096;17.190;2023-04-01T08:47:03;4.78;;;3.53;;
21927;SDS011;11128;51.096;17.190;2023-04-01T09:08:31;8.73;;;4.07;;
21927;SDS011;11128;51.096;17.190;2023-04-01T09:14:11;7.25;;;3.65;;
21927;SDS011;11128;51.096;17.190;2023-04-01T09:35:48;7.63;;;3.15;;
21927;SDS011;11128;51.096;17.190;2023-04-01T09:40:57;7.87;;;3.57;;
21927;SDS011;11128;51.096;17.190;2023-04-01T10:28:47;9.20;;;2.83;;
21927;SDS011;11128;51.096;17.190;2023-04-01T10:50:47;0.80;;;0.70;;
21927;SDS011;11128;51.096;17.190;2023-04-01T11:44:31;1.85;;;1.48;;
21927;SDS011;11128;51.096;17.190;2023-04-01T12:21:35;1.80;;;1.17;;
21927;SDS011;11128;51.096;17.190;2023-04-01T12:37:49;1.77;;;1.50;;
21927;SDS011;11128;51.096;17.190;2023-04-01T12:53:16;2.35;;;1.30;;
21927;SDS011;11128;51.096;17.190;2023-04-01T13:14:28;1.40;;;1.00;;
21927;SDS011;11128;51.096;17.190;2023-04-01T13:19:37;1.88;;;0.90;;
21927;SDS011;11128;51.096;17.190;2023-04-01T13:24:51;0.90;;;0.82;;
21927;SDS011;11128;51.096;17.190;2023-04-01T14:13:01;3.53;;;2.10;;
21927;SDS011;11128;51.096;17.190;2023-04-01T14:51:37;1.95;;;1.20;;
21927;SDS011;11128;51.096;17.190;2023-04-01T14:56:16;3.28;;;1.77;;
21927;SDS011;11128;51.096;17.190;2023-04-01T15:23:34;5.25;;;3.10;;
21927;SDS011;11128;51.096;17.190;2023-04-01T15:29:00;8.65;;;4.35;;
21927;SDS011;11128;51.096;17.190;2023-04-01T15:44:54;13.73;;;7.20;;
21927;SDS011;11128;51.096;17.190;2023-04-01T15:50:28;22.17;;;9.77;;
21927;SDS011;11128;51.096;17.190;2023-04-01T15:55:50;11.57;;;6.47;;
21927;SDS011;11128;51.096;17.190;2023-04-01T16:01:27;14.82;;;7.07;;
21927;SDS011;11128;51.096;17.190;2023-04-01T16:07:03;12.52;;;7.25;;
21927;SDS011;11128;51.096;17.190;2023-04-01T16:12:41;9.05;;;5.18;;
21927;SDS011;11128;51.096;17.190;2023-04-01T16:23:29;16.73;;;9.43;;
21927;SDS011;11128;51.096;17.190;2023-04-01T16:34:01;18.33;;;10.00;;
21927;SDS011;11128;51.096;17.190;2023-04-01T16:39:29;14.20;;;8.00;;
21927;SDS011;11128;51.096;17.190;2023-04-01T16:44:55;11.38;;;7.53;;
21927;SDS011;11128;51.096;17.190;2023-04-01T16:50:24;10.02;;;6.68;;
21927;SDS011;11128;51.096;17.190;2023-04-01T16:55:34;14.55;;;7.97;;
21927;SDS011;11128;51.096;17.190;2023-04-01T17:00:48;20.60;;;11.50;;
21927;SDS011;11128;51.096;17.190;2023-04-01T17:11:12;24.10;;;12.23;;
21927;SDS011;11128;51.096;17.190;2023-04-01T17:32:19;20.63;;;11.80;;
21927;SDS011;11128;51.096;17.190;2023-04-01T17:42:48;28.30;;;14.13;;
21927;SDS011;11128;51.096;17.190;2023-04-01T17:58:49;31.23;;;16.45;;
21927;SDS011;11128;51.096;17.190;2023-04-01T18:20:00;35.97;;;18.73;;
21927;SDS011;11128;51.096;17.190;2023-04-01T18:25:20;38.63;;;20.58;;
21927;SDS011;11128;51.096;17.190;2023-04-01T18:30:29;45.88;;;22.15;;
21927;SDS011;11128;51.096;17.190;2023-04-01T18:35:52;36.72;;;19.42;;
21927;SDS011;11128;51.096;17.190;2023-04-01T18:46:55;37.88;;;19.05;;
21927;SDS011;11128;51.096;17.190;2023-04-01T18:52:19;76.05;;;35.13;;
21927;SDS011;11128;51.096;17.190;2023-04-01T19:02:49;46.42;;;22.30;;
21927;SDS011;11128;51.096;17.190;2023-04-01T19:18:39;46.65;;;22.73;;
21927;SDS011;11128;51.096;17.190;2023-04-01T19:34:27;51.17;;;22.75;;
21927;SDS011;11128;51.096;17.190;2023-04-01T19:55:53;46.65;;;21.40;;
21927;SDS011;11128;51.096;17.190;2023-04-01T20:01:04;47.88;;;23.67;;
21927;SDS011;11128;51.096;17.190;2023-04-01T20:16:48;49.30;;;23.02;;
21927;SDS011;11128;51.096;17.190;2023-04-01T20:22:03;46.97;;;21.85;;
21927;SDS011;11128;51.096;17.190;2023-04-01T20:27:15;45.50;;;21.75;;
21927;SDS011;11128;51.096;17.190;2023-04-01T20:32:38;46.20;;;21.85;;
21927;SDS011;11128;51.096;17.190;2023-04-01T20:43:23;43.15;;;21.92;;
21927;SDS011;11128;51.096;17.190;2023-04-01T20:49:03;49.33;;;22.27;;
21927;SDS011;11128;51.096;17.190;2023-04-01T21:11:03;49.92;;;23.75;;
21927;SDS011;11128;51.096;17.190;2023-04-01T22:09:25;54.58;;;25.10;;
21927;SDS011;11128;51.096;17.190;2023-04-01T22:14:33;49.05;;;24.50;;
21927;SDS011;11128;51.096;17.190;2023-04-01T22:24:43;56.50;;;25.98;;
21927;SDS011;11128;51.096;17.190;2023-04-01T22:40:40;57.20;;;26.05;;
21927;SDS011;11128;51.096;17.190;2023-04-01T22:56:47;43.30;;;21.23;;
21927;SDS011;11128;51.096;17.190;2023-04-01T23:02:04;41.15;;;20.33;;
21927;SDS011;11128;51.096;17.190;2023-04-01T23:07:28;40.30;;;20.10;;
21927;SDS011;11128;51.096;17.190;2023-04-01T23:12:47;34.95;;;17.75;;
21927;SDS011;11128;51.096;17.190;2023-04-01T23:23:36;33.03;;;17.20;;
21927;SDS011;11128;51.096;17.190;2023-04-01T23:28:53;26.38;;;14.93;;
21927;SDS011;11128;51.096;17.190;2023-04-01T23:33:56;23.27;;;13.07;;
21927;SDS011;11128;51.096;17.190;2023-04-01T23:39:03;23.40;;;12.73;;
21927;SDS011;11128;51.096;17.190;2023-04-01T23:44:09;20.02;;;12.30;;
21927;SDS011;11128;51.096;17.190;2023-04-01T23:49:14;19.45;;;11.98;;
21927;SDS011;11128;51.096;17.190;2023-04-01T23:54:25;20.67;;;11.90;;
21927;SDS011;11128;51.096;17.190;2023-04-01T23:59:33;22.48;;;11.60;;
